createdAt,value
2024-03-11T00:01:11.664Z,8.80
2024-03-11T00:03:40.268Z,8.80
2024-03-11T00:06:09.043Z,8.80
2024-03-11T00:08:37.967Z,8.80
2024-03-11T00:11:06.984Z,8.70
2024-03-11T00:13:38.609Z,8.70
2024-03-11T00:16:08.220Z,8.80
2024-03-11T00:18:36.828Z,8.70
2024-03-11T00:21:05.633Z,8.70
2024-03-11T00:23:35.354Z,8.70
2024-03-11T00:26:04.630Z,8.70
2024-03-11T00:28:34.790Z,8.70
2024-03-11T00:31:04.688Z,8.80
2024-03-11T00:33:33.106Z,8.80
2024-03-11T00:36:02.067Z,8.80
2024-03-11T00:38:30.800Z,8.80
2024-03-11T00:40:59.149Z,8.80
2024-03-11T00:43:27.496Z,8.80
2024-03-11T00:45:56.407Z,8.70
2024-03-11T00:48:26.239Z,8.60
2024-03-11T00:50:55.357Z,8.40
2024-03-11T00:53:23.807Z,8.30
2024-03-11T00:55:53.532Z,8.20
2024-03-11T00:58:22.691Z,8.20
2024-03-11T01:00:52.013Z,8.20
2024-03-11T01:03:20.531Z,8.10
2024-03-11T01:05:50.996Z,8.10
2024-03-11T01:08:20.015Z,8.10
2024-03-11T01:10:48.744Z,8.00
2024-03-11T01:13:17.264Z,8.00
2024-03-11T01:15:45.610Z,8.00
2024-03-11T01:18:15.437Z,8.00
2024-03-11T01:20:45.402Z,8.00
2024-03-11T01:23:15.366Z,8.00
2024-03-11T01:25:43.649Z,7.90
2024-03-11T01:28:12.274Z,7.90
2024-03-11T01:30:40.958Z,7.80
2024-03-11T01:33:09.322Z,7.80
2024-03-11T01:35:42.436Z,7.70
2024-03-11T01:38:11.603Z,7.70
2024-03-11T01:40:43.188Z,7.60
2024-03-11T01:43:11.832Z,7.50
2024-03-11T01:45:41.649Z,7.50
2024-03-11T01:48:11.306Z,7.50
2024-03-11T01:50:40.154Z,7.50
2024-03-11T01:53:08.689Z,7.40
2024-03-11T01:55:38.631Z,7.30
2024-03-11T01:58:11.426Z,7.30
2024-03-11T02:00:41.485Z,7.30
2024-03-11T02:03:09.838Z,7.30
2024-03-11T02:05:42.219Z,7.30
2024-03-11T02:08:11.495Z,7.30
2024-03-11T02:10:40.414Z,7.30
2024-03-11T02:13:10.420Z,7.40
2024-03-11T02:15:38.672Z,7.40
2024-03-11T02:18:07.619Z,7.40
2024-03-11T02:20:40.201Z,7.30
2024-03-11T02:23:09.980Z,7.30
2024-03-11T02:25:39.119Z,7.20
2024-03-11T02:28:08.243Z,7.20
2024-03-11T02:30:36.537Z,7.20
2024-03-11T02:33:06.776Z,7.20
2024-03-11T02:35:35.643Z,7.30
2024-03-11T02:38:03.981Z,7.30
2024-03-11T02:40:39.446Z,7.30
2024-03-11T02:43:08.264Z,7.40
2024-03-11T02:45:36.887Z,7.40
2024-03-11T02:48:05.596Z,7.40
2024-03-11T02:50:34.175Z,7.40
2024-03-11T02:53:02.900Z,7.40
2024-03-11T02:55:31.370Z,7.40
2024-03-11T02:58:01.529Z,7.40
2024-03-11T03:00:30.169Z,7.40
2024-03-11T03:03:00.717Z,7.30
2024-03-11T03:05:29.096Z,7.30
2024-03-11T03:07:57.374Z,7.30
2024-03-11T03:10:26.050Z,7.40
2024-03-11T03:12:54.323Z,7.30
2024-03-11T03:15:24.034Z,7.30
2024-03-11T03:17:52.503Z,7.30
2024-03-11T03:20:21.388Z,7.30
2024-03-11T03:22:49.704Z,7.30
2024-03-11T03:25:19.002Z,7.30
2024-03-11T03:27:48.002Z,7.30
2024-03-11T03:30:17.092Z,7.30
2024-03-11T03:32:46.919Z,7.20
2024-03-11T03:35:15.568Z,7.20
2024-03-11T03:37:44.509Z,7.20
2024-03-11T03:40:18.134Z,7.20
2024-03-11T03:42:47.444Z,7.20
2024-03-11T03:45:17.225Z,7.30
2024-03-11T03:47:48.003Z,7.30
2024-03-11T03:50:16.535Z,7.30
2024-03-11T03:52:45.670Z,7.30
2024-03-11T03:55:14.361Z,7.40
2024-03-11T03:57:44.117Z,7.50
2024-03-11T04:00:17.105Z,7.40
2024-03-11T04:02:48.317Z,7.30
2024-03-11T04:05:19.020Z,7.30
2024-03-11T04:07:47.518Z,7.30
2024-03-11T04:10:19.187Z,7.30
2024-03-11T04:12:49.398Z,7.30
2024-03-11T04:15:19.613Z,7.30
2024-03-11T04:17:50.194Z,7.30
2024-03-11T04:20:24.943Z,7.30
2024-03-11T04:22:55.161Z,7.20
2024-03-11T04:25:24.739Z,7.10
2024-03-11T04:27:53.417Z,7.20
2024-03-11T04:30:22.322Z,7.20
2024-03-11T04:32:54.445Z,7.30
2024-03-11T04:35:26.354Z,7.30
2024-03-11T04:37:55.931Z,7.30
2024-03-11T04:40:25.634Z,7.30
2024-03-11T04:42:54.167Z,7.30
2024-03-11T04:45:23.361Z,7.20
2024-03-11T04:47:55.419Z,7.30
2024-03-11T04:50:26.611Z,7.20
2024-03-11T04:52:56.721Z,7.20
2024-03-11T04:55:25.350Z,7.20
2024-03-11T04:57:54.033Z,7.20
2024-03-11T05:00:28.009Z,7.20
2024-03-11T05:02:59.069Z,7.20
2024-03-11T05:05:28.009Z,7.20
2024-03-11T05:07:56.644Z,7.20
2024-03-11T05:10:25.367Z,7.20
2024-03-11T05:12:53.637Z,7.20
2024-03-11T05:15:23.025Z,7.20
2024-03-11T05:17:51.642Z,7.20
2024-03-11T05:20:21.415Z,7.30
2024-03-11T05:22:50.123Z,7.20
2024-03-11T05:25:20.066Z,7.30
2024-03-11T05:27:49.349Z,7.30
2024-03-11T05:30:19.202Z,7.30
2024-03-11T05:32:48.364Z,7.30
2024-03-11T05:35:20.864Z,7.30
2024-03-11T05:37:52.800Z,7.30
2024-03-11T05:40:21.479Z,7.30
2024-03-11T05:42:50.124Z,7.30
2024-03-11T05:45:18.694Z,7.40
2024-03-11T05:47:48.181Z,7.40
2024-03-11T05:50:18.660Z,7.50
2024-03-11T05:52:47.596Z,7.50
2024-03-11T05:55:20.156Z,7.50
2024-03-11T05:57:50.127Z,7.50
2024-03-11T06:00:19.095Z,7.50
2024-03-11T06:02:48.441Z,7.50
2024-03-11T06:05:18.908Z,7.50
2024-03-11T06:07:47.608Z,7.50
2024-03-11T06:10:17.544Z,7.50
2024-03-11T06:12:46.261Z,7.50
2024-03-11T06:15:14.502Z,7.50
2024-03-11T06:17:43.559Z,7.50
2024-03-11T06:20:15.747Z,7.40
2024-03-11T06:22:45.112Z,7.40
2024-03-11T06:25:14.049Z,7.40
2024-03-11T06:27:45.052Z,7.50
2024-03-11T06:30:14.284Z,7.50
2024-03-11T06:32:45.953Z,7.60
2024-03-11T06:35:15.620Z,7.60
2024-03-11T06:37:45.184Z,7.50
2024-03-11T06:40:18.665Z,7.40
2024-03-11T06:42:50.263Z,7.40
2024-03-11T06:45:18.987Z,7.40
2024-03-11T06:47:47.776Z,7.50
2024-03-11T06:50:16.739Z,7.60
2024-03-11T06:52:46.875Z,7.60
2024-03-11T06:55:18.126Z,7.60
2024-03-11T06:57:49.045Z,7.60
2024-03-11T07:00:20.506Z,7.60
2024-03-11T07:02:49.184Z,7.60
2024-03-11T07:05:19.640Z,7.70
2024-03-11T07:07:48.579Z,7.70
2024-03-11T07:10:17.729Z,7.70
2024-03-11T07:12:46.610Z,7.70
2024-03-11T07:15:19.160Z,7.70
2024-03-11T07:17:47.746Z,7.80
2024-03-11T07:20:16.257Z,7.80
2024-03-11T07:22:44.993Z,7.80
2024-03-11T07:25:17.639Z,7.80
2024-03-11T07:27:48.899Z,7.80
2024-03-11T07:30:24.316Z,7.80
2024-03-11T07:33:04.415Z,7.80
2024-03-11T07:35:33.671Z,7.80
2024-03-11T07:38:02.044Z,7.80
2024-03-11T07:40:30.611Z,7.80
2024-03-11T07:42:59.868Z,7.80
2024-03-11T07:45:29.746Z,7.80
2024-03-11T07:47:58.279Z,7.70
2024-03-11T07:50:26.796Z,7.70
2024-03-11T07:52:55.942Z,7.70
2024-03-11T07:55:25.705Z,7.60
2024-03-11T07:57:54.225Z,7.50
2024-03-11T08:00:24.142Z,7.50
2024-03-11T08:02:54.392Z,7.50
2024-03-11T08:05:24.107Z,7.40
2024-03-11T08:07:53.226Z,7.40
2024-03-11T08:10:22.431Z,7.50
2024-03-11T08:12:50.977Z,7.40
2024-03-11T08:15:22.224Z,7.50
2024-03-11T08:17:51.825Z,7.50
2024-03-11T08:20:23.044Z,7.60
2024-03-11T08:22:54.007Z,7.70
2024-03-11T08:25:24.469Z,7.70
2024-03-11T08:27:53.962Z,7.60
2024-03-11T08:30:23.782Z,7.60
2024-03-11T08:32:52.917Z,7.60
2024-03-11T08:35:25.642Z,7.60
2024-03-11T08:37:55.001Z,7.60
2024-03-11T08:40:24.191Z,7.60
2024-03-11T08:42:52.753Z,7.60
2024-03-11T08:45:24.506Z,7.60
2024-03-11T08:47:55.284Z,7.50
2024-03-11T08:50:26.233Z,7.50
2024-03-11T08:52:55.150Z,7.60
2024-03-11T08:55:23.683Z,7.80
2024-03-11T08:57:52.522Z,8.00
2024-03-11T09:00:24.137Z,8.10
2024-03-11T09:02:52.958Z,8.00
2024-03-11T09:05:21.314Z,8.10
2024-03-11T09:07:52.737Z,8.10
2024-03-11T09:10:21.875Z,8.20
2024-03-11T09:12:52.579Z,8.20
2024-03-11T09:15:27.980Z,8.20
2024-03-11T09:17:57.001Z,8.40
2024-03-11T09:20:29.242Z,8.30
2024-03-11T09:23:00.310Z,8.40
2024-03-11T09:25:29.272Z,8.40
2024-03-11T09:28:03.618Z,8.40
2024-03-11T09:30:34.813Z,8.50
2024-03-11T09:33:03.536Z,8.70
2024-03-11T09:35:33.719Z,8.90
2024-03-11T09:38:04.017Z,9.20
2024-03-11T09:40:33.645Z,9.60
2024-03-11T09:43:03.816Z,9.50
2024-03-11T09:45:36.876Z,9.50
2024-03-11T09:48:07.071Z,9.60
2024-03-11T09:50:38.932Z,9.60
2024-03-11T09:53:15.037Z,9.60
2024-03-11T09:55:46.494Z,9.40
2024-03-11T09:58:18.262Z,9.20
2024-03-11T10:00:52.447Z,9.00
2024-03-11T10:03:24.213Z,8.90
2024-03-11T10:05:59.373Z,8.70
2024-03-11T10:08:33.630Z,8.60
2024-03-11T10:11:15.905Z,8.60
2024-03-11T10:13:45.097Z,8.60
2024-03-11T10:16:19.393Z,8.50
2024-03-11T10:18:55.009Z,8.50
2024-03-11T10:21:23.957Z,8.60
2024-03-11T10:23:54.165Z,8.60
2024-03-11T10:26:26.728Z,8.60
2024-03-11T10:28:57.691Z,8.60
2024-03-11T10:31:29.349Z,8.70
2024-03-11T10:34:11.943Z,8.70
2024-03-11T10:36:41.921Z,8.70
2024-03-11T10:39:27.533Z,8.70
2024-03-11T10:41:58.254Z,8.70
2024-03-11T10:44:31.068Z,8.70
2024-03-11T10:47:17.145Z,8.70
2024-03-11T10:49:49.435Z,8.70
2024-03-11T10:52:22.518Z,8.60
2024-03-11T10:57:36.487Z,8.70
2024-03-11T11:00:12.340Z,8.70
2024-03-11T11:02:42.866Z,8.70
2024-03-11T11:05:12.009Z,8.80
2024-03-11T11:07:44.372Z,8.90
2024-03-11T11:10:14.973Z,9.00
2024-03-11T11:12:43.910Z,9.10
2024-03-11T11:15:14.136Z,9.20
2024-03-11T11:17:44.248Z,9.30
2024-03-11T11:20:31.928Z,9.30
2024-03-11T11:23:01.897Z,9.30
2024-03-11T11:25:41.429Z,9.40
2024-03-11T11:28:14.977Z,9.50
2024-03-11T11:30:45.807Z,9.50
2024-03-11T11:33:34.869Z,9.50
2024-03-11T11:36:06.872Z,9.50
2024-03-11T11:38:35.519Z,9.50
2024-03-11T11:41:25.908Z,9.50
2024-03-11T11:43:56.141Z,9.50
2024-03-11T11:46:43.428Z,9.40
2024-03-11T11:49:19.264Z,9.40
2024-03-11T11:51:48.535Z,9.30
2024-03-11T11:54:35.659Z,9.20
2024-03-11T11:57:12.072Z,9.10
2024-03-11T11:59:42.035Z,9.00
2024-03-11T12:02:18.072Z,8.90
2024-03-11T12:04:50.334Z,8.90
2024-03-11T12:07:24.575Z,8.90
2024-03-11T12:09:54.447Z,8.90
2024-03-11T12:12:30.171Z,8.90
2024-03-11T12:15:02.929Z,9.10
2024-03-11T12:17:33.712Z,9.20
2024-03-11T12:20:21.868Z,9.10
2024-03-11T12:22:51.929Z,9.20
2024-03-11T12:25:21.233Z,9.10
2024-03-11T12:28:02.701Z,9.20
2024-03-11T12:30:38.337Z,9.30
2024-03-11T12:33:08.880Z,9.30
2024-03-11T12:35:39.271Z,9.30
2024-03-11T12:38:09.101Z,9.30
2024-03-11T12:40:44.767Z,9.20
2024-03-11T12:43:22.274Z,9.20
2024-03-11T12:45:53.817Z,9.10
2024-03-11T12:48:24.567Z,9.10
2024-03-11T12:50:57.595Z,9.00
2024-03-11T12:53:27.317Z,9.00
2024-03-11T12:56:06.049Z,9.00
2024-03-11T12:58:38.676Z,9.00
2024-03-11T13:01:11.522Z,9.10
2024-03-11T13:03:43.439Z,9.10
2024-03-11T13:06:18.197Z,9.20
2024-03-11T13:08:47.013Z,9.20
2024-03-11T13:11:18.304Z,9.30
2024-03-11T13:13:48.817Z,9.40
2024-03-11T13:16:19.079Z,9.40
2024-03-11T13:18:53.461Z,9.40
2024-03-11T13:21:25.147Z,9.50
2024-03-11T13:23:54.746Z,9.50
2024-03-11T13:26:25.020Z,9.30
2024-03-11T13:28:56.826Z,9.30
2024-03-11T13:31:31.639Z,9.40
2024-03-11T13:34:01.871Z,9.30
2024-03-11T13:36:30.959Z,9.20
2024-03-11T13:39:01.670Z,9.10
2024-03-11T13:41:30.519Z,8.90
2024-03-11T13:44:12.070Z,8.90
2024-03-11T13:46:44.348Z,8.80
2024-03-11T13:49:13.178Z,8.70
2024-03-11T13:51:42.257Z,8.60
2024-03-11T13:54:12.457Z,8.60
2024-03-11T13:56:41.357Z,8.60
2024-03-11T13:59:11.840Z,8.60
2024-03-11T14:01:40.945Z,8.50
2024-03-11T14:04:09.943Z,8.50
2024-03-11T14:06:41.624Z,8.50
2024-03-11T14:09:12.685Z,8.60
2024-03-11T14:11:42.005Z,8.60
2024-03-11T14:14:15.036Z,8.60
2024-03-11T14:16:45.717Z,8.60
2024-03-11T14:19:14.388Z,8.60
2024-03-11T14:21:43.548Z,8.70
2024-03-11T14:24:12.236Z,8.80
2024-03-11T14:26:41.035Z,8.90
2024-03-11T14:29:14.554Z,9.00
2024-03-11T14:31:46.403Z,9.10
2024-03-11T14:34:15.960Z,9.10
2024-03-11T14:36:46.057Z,9.10
2024-03-11T14:39:19.010Z,9.10
2024-03-11T14:41:48.630Z,9.10
2024-03-11T14:44:17.845Z,9.20
2024-03-11T14:46:57.528Z,9.30
2024-03-11T14:49:28.573Z,9.20
2024-03-11T14:51:58.516Z,9.30
2024-03-11T14:54:31.731Z,9.40
2024-03-11T14:57:01.945Z,9.30
2024-03-11T14:59:32.936Z,9.30
2024-03-11T15:02:03.700Z,9.20
2024-03-11T15:04:33.151Z,9.00
2024-03-11T15:07:02.093Z,8.90
2024-03-11T15:09:31.373Z,8.80
2024-03-11T15:12:00.215Z,8.80
2024-03-11T15:14:29.029Z,8.80
2024-03-11T15:17:02.112Z,8.70
2024-03-11T15:19:34.441Z,8.70
2024-03-11T15:22:03.249Z,8.60
2024-03-11T15:24:32.221Z,8.60
2024-03-11T15:27:01.605Z,8.60
2024-03-11T15:29:34.335Z,8.50
2024-03-11T15:32:03.151Z,8.50
2024-03-11T15:34:33.269Z,8.40
2024-03-11T15:37:06.565Z,8.40
2024-03-11T15:39:40.551Z,8.40
2024-03-11T15:42:10.344Z,8.40
2024-03-11T15:44:40.673Z,8.40
2024-03-11T15:47:11.280Z,8.40
2024-03-11T15:49:44.728Z,8.40
2024-03-11T15:52:13.664Z,8.40
2024-03-11T15:54:42.819Z,8.50
2024-03-11T15:57:11.878Z,8.50
2024-03-11T15:59:41.584Z,8.50
2024-03-11T16:02:10.765Z,8.40
2024-03-11T16:04:44.330Z,8.30
2024-03-11T16:07:16.243Z,8.20
2024-03-11T16:10:02.573Z,8.20
2024-03-11T16:12:31.398Z,8.20
2024-03-11T16:14:59.046Z,8.20
2024-03-11T16:17:28.167Z,8.20
2024-03-11T16:19:57.394Z,8.20
2024-03-11T16:22:27.739Z,8.20
2024-03-11T16:24:56.495Z,8.20
2024-03-11T16:27:24.593Z,8.10
2024-03-11T16:29:57.459Z,8.10
2024-03-11T16:32:28.843Z,8.10
2024-03-11T16:34:59.269Z,8.10
2024-03-11T16:37:28.107Z,8.10
2024-03-11T16:39:57.045Z,8.00
2024-03-11T16:42:24.889Z,8.10
2024-03-11T16:44:55.449Z,8.10
2024-03-11T16:47:23.329Z,8.10
2024-03-11T16:49:52.435Z,8.10
2024-03-11T16:52:21.556Z,8.10
2024-03-11T16:54:50.783Z,8.10
2024-03-11T16:57:18.820Z,8.10
2024-03-11T16:59:49.219Z,8.10
2024-03-11T17:02:16.761Z,8.10
2024-03-11T17:04:45.543Z,8.10
2024-03-11T17:07:13.441Z,8.10
2024-03-11T17:09:43.650Z,8.10
2024-03-11T17:12:14.562Z,8.00
2024-03-11T17:14:43.713Z,8.00
2024-03-11T17:17:14.403Z,8.00
2024-03-11T17:19:43.542Z,8.00
2024-03-11T17:22:12.250Z,8.00
2024-03-11T17:24:42.786Z,8.00
2024-03-11T17:27:11.860Z,8.00
2024-03-11T17:29:40.526Z,8.00
2024-03-11T17:32:08.616Z,7.90
2024-03-11T17:34:37.441Z,7.90
2024-03-11T17:37:06.100Z,7.90
2024-03-11T17:39:36.141Z,7.80
2024-03-11T17:42:05.481Z,7.80
2024-03-11T17:44:36.642Z,7.80
2024-03-11T17:47:05.386Z,7.80
2024-03-11T17:49:34.322Z,7.80
2024-03-11T17:52:02.308Z,7.80
2024-03-11T17:54:31.876Z,7.70
2024-03-11T17:56:59.741Z,7.80
2024-03-11T17:59:28.403Z,7.70
2024-03-11T18:01:59.457Z,7.70
2024-03-11T18:04:27.631Z,7.70
2024-03-11T18:06:57.941Z,7.70
2024-03-11T18:09:33.332Z,7.70
2024-03-11T18:12:02.091Z,7.70
2024-03-11T18:14:29.982Z,7.70
2024-03-11T18:17:07.392Z,7.70
2024-03-11T18:19:35.325Z,7.70
2024-03-11T18:22:04.534Z,7.60
2024-03-11T18:24:32.357Z,7.60
2024-03-11T18:27:00.949Z,7.60
2024-03-11T18:29:36.586Z,7.60
2024-03-11T18:32:11.295Z,7.70
2024-03-11T18:34:39.306Z,7.60
2024-03-11T18:37:11.169Z,7.60
2024-03-11T18:39:41.516Z,7.70
2024-03-11T18:42:11.022Z,7.60
2024-03-11T18:44:41.919Z,7.60
2024-03-11T18:47:16.870Z,7.60
2024-03-11T18:49:45.757Z,7.60
2024-03-11T18:52:14.578Z,7.70
2024-03-11T18:54:43.694Z,7.70
2024-03-11T18:57:12.425Z,7.70
2024-03-11T18:59:41.177Z,7.70
2024-03-11T19:02:09.762Z,7.70
2024-03-11T19:04:40.291Z,7.70
2024-03-11T19:07:13.418Z,7.60
2024-03-11T19:09:42.278Z,7.60
2024-03-11T19:12:11.092Z,7.60
2024-03-11T19:14:41.814Z,7.70
2024-03-11T19:17:11.377Z,7.70
2024-03-11T19:19:42.779Z,7.70
2024-03-11T19:22:11.934Z,7.70
2024-03-11T19:24:42.237Z,7.70
2024-03-11T19:27:14.229Z,7.70
2024-03-11T19:29:49.918Z,7.70
2024-03-11T19:32:21.854Z,7.80
2024-03-11T19:34:53.942Z,7.80
2024-03-11T19:37:44.286Z,7.80
2024-03-11T19:40:15.595Z,7.80
2024-03-11T19:43:02.352Z,7.80
2024-03-11T19:45:45.274Z,7.80
2024-03-11T19:48:41.074Z,7.80
2024-03-11T19:51:35.970Z,7.80
2024-03-11T19:54:23.848Z,7.80
2024-03-11T19:57:02.279Z,7.70
2024-03-11T19:59:50.001Z,7.70
2024-03-11T20:02:44.334Z,7.70
2024-03-11T20:05:41.499Z,7.70
2024-03-11T20:08:23.705Z,7.70
2024-03-11T20:11:23.462Z,7.70
2024-03-11T20:14:13.337Z,7.70
2024-03-11T20:17:08.876Z,7.80
2024-03-11T20:19:48.502Z,7.80
2024-03-11T20:22:32.861Z,7.80
2024-03-11T20:25:25.773Z,7.80
2024-03-11T20:28:01.101Z,7.80
2024-03-11T20:30:37.494Z,7.70
2024-03-11T20:33:07.486Z,7.80
2024-03-11T20:35:36.286Z,7.80
2024-03-11T20:38:05.228Z,7.80
2024-03-11T20:40:35.989Z,7.80
2024-03-11T20:43:07.165Z,7.70
2024-03-11T20:45:36.213Z,7.70
2024-03-11T20:48:05.149Z,7.70
2024-03-11T20:50:34.177Z,7.80
2024-03-11T20:53:04.341Z,7.80
2024-03-11T20:55:36.314Z,7.80
2024-03-11T20:58:07.432Z,7.80
2024-03-11T21:00:36.985Z,7.80
2024-03-11T21:03:06.642Z,7.80
2024-03-11T21:05:35.559Z,7.80
2024-03-11T21:08:10.817Z,7.80
2024-03-11T21:10:43.283Z,7.70
2024-03-11T21:13:14.171Z,7.70
2024-03-11T21:15:43.762Z,7.80
2024-03-11T21:18:13.580Z,7.80
2024-03-11T21:20:57.148Z,7.70
2024-03-11T21:23:37.181Z,7.70
2024-03-11T21:26:29.705Z,7.80
2024-03-11T21:28:59.912Z,7.70
2024-03-11T21:31:29.774Z,7.70
2024-03-11T21:33:58.485Z,7.60
2024-03-11T21:36:27.254Z,7.70
2024-03-11T21:38:58.209Z,7.70
2024-03-11T21:41:27.830Z,7.80
2024-03-11T21:43:56.931Z,7.80
2024-03-11T21:46:27.541Z,7.70
2024-03-11T21:48:56.388Z,7.70
2024-03-11T21:51:26.865Z,7.80
2024-03-11T21:53:56.329Z,7.70
2024-03-11T21:56:25.504Z,7.80
2024-03-11T21:58:54.159Z,7.80
2024-03-11T22:01:22.885Z,7.80
2024-03-11T22:03:53.191Z,7.80
2024-03-11T22:06:21.773Z,7.80
2024-03-11T22:08:54.077Z,7.80
2024-03-11T22:11:23.015Z,7.80
2024-03-11T22:13:51.602Z,7.70
2024-03-11T22:16:20.401Z,7.80
2024-03-11T22:18:49.117Z,7.80
2024-03-11T22:21:19.385Z,7.90
2024-03-11T22:23:49.049Z,7.80
2024-03-11T22:26:18.046Z,7.80
2024-03-11T22:28:46.926Z,7.90
2024-03-11T22:31:15.746Z,7.90
2024-03-11T22:33:44.550Z,7.90
2024-03-11T22:36:13.138Z,7.90
2024-03-11T22:38:43.454Z,7.80
2024-03-11T22:41:12.004Z,7.80
2024-03-11T22:43:41.829Z,7.80
2024-03-11T22:46:13.582Z,7.80
2024-03-11T22:48:42.218Z,7.80
2024-03-11T22:51:11.326Z,7.80
2024-03-11T22:53:40.393Z,7.80
2024-03-11T22:56:10.633Z,7.80
2024-03-11T22:58:39.455Z,7.80
2024-03-11T23:01:08.862Z,7.90
2024-03-11T23:03:38.808Z,7.90
2024-03-11T23:06:10.091Z,7.80
2024-03-11T23:08:39.054Z,7.90
2024-03-11T23:11:11.067Z,7.80
2024-03-11T23:13:42.177Z,7.90
2024-03-11T23:16:12.991Z,7.90
2024-03-11T23:18:43.286Z,7.90
2024-03-11T23:21:12.065Z,7.90
2024-03-11T23:23:41.586Z,7.90
2024-03-11T23:26:12.551Z,7.90
2024-03-11T23:28:42.925Z,7.90
2024-03-11T23:31:12.761Z,7.90
2024-03-11T23:33:41.226Z,7.90
2024-03-11T23:36:11.015Z,7.90
2024-03-11T23:38:41.021Z,7.90
2024-03-11T23:41:09.567Z,7.90
2024-03-11T23:43:38.451Z,7.90
2024-03-11T23:46:08.859Z,7.90
2024-03-11T23:48:45.070Z,7.90
2024-03-11T23:51:15.010Z,7.90
2024-03-11T23:53:43.933Z,7.80
2024-03-11T23:56:13.491Z,7.80
2024-03-11T23:58:43.325Z,7.80
